createdAt,value
2022-11-19T00:03:04.172Z,20.60
2022-11-19T00:06:33.033Z,18.50
2022-11-19T00:10:01.957Z,17.60
2022-11-19T00:13:29.394Z,17.80
2022-11-19T00:16:59.081Z,19.50
2022-11-19T00:20:27.810Z,16.90
2022-11-19T00:24:01.736Z,16.10
2022-11-19T00:27:32.046Z,15.30
2022-11-19T00:31:04.243Z,14.00
2022-11-19T00:34:58.532Z,13.20
2022-11-19T00:38:25.695Z,13.30
2022-11-19T00:41:52.319Z,14.70
2022-11-19T00:45:19.211Z,20.60
2022-11-19T00:48:47.598Z,25.40
2022-11-19T00:52:14.660Z,27.70
2022-11-19T00:55:41.879Z,26.90
2022-11-19T00:59:08.464Z,26.40
2022-11-19T01:02:36.321Z,28.30
2022-11-19T01:06:08.369Z,30.70
2022-11-19T01:09:59.276Z,29.70
2022-11-19T01:13:36.572Z,29.30
2022-11-19T01:17:03.376Z,29.10
2022-11-19T01:20:30.037Z,28.50
2022-11-19T01:24:05.846Z,29.60
2022-11-19T01:27:36.699Z,29.10
2022-11-19T01:31:16.751Z,27.60
2022-11-19T01:34:44.423Z,30.90
2022-11-19T01:38:21.551Z,27.70
2022-11-19T01:41:51.754Z,30.30
2022-11-19T01:45:31.151Z,29.40
2022-11-19T01:49:04.157Z,28.10
2022-11-19T01:52:30.920Z,29.50
2022-11-19T01:56:04.164Z,31.40
2022-11-19T01:59:32.716Z,32.50
2022-11-19T02:03:01.224Z,30.00
2022-11-19T02:06:28.179Z,30.30
2022-11-19T02:09:55.138Z,29.70
2022-11-19T02:13:27.072Z,30.10
2022-11-19T02:17:05.662Z,31.00
2022-11-19T02:20:55.986Z,30.70
2022-11-19T02:24:43.203Z,34.50
2022-11-19T02:28:30.628Z,33.60
2022-11-19T02:32:02.716Z,34.50
2022-11-19T02:35:38.968Z,37.70
2022-11-19T02:39:10.636Z,38.90
2022-11-19T02:42:45.182Z,34.70
2022-11-19T02:46:16.044Z,34.90
2022-11-19T02:49:46.003Z,35.10
2022-11-19T02:53:13.359Z,33.10
2022-11-19T02:56:53.222Z,33.70
2022-11-19T03:00:38.087Z,33.20
2022-11-19T03:04:22.435Z,33.50
2022-11-19T03:07:50.869Z,37.80
2022-11-19T03:11:23.755Z,43.70
2022-11-19T03:15:15.886Z,42.70
2022-11-19T03:18:47.908Z,44.90
2022-11-19T03:22:20.967Z,46.20
2022-11-19T03:25:51.828Z,44.70
2022-11-19T03:29:19.354Z,40.80
2022-11-19T03:32:51.691Z,37.10
2022-11-19T03:36:23.249Z,32.40
2022-11-19T03:39:51.452Z,32.20
2022-11-19T03:43:22.702Z,26.60
2022-11-19T03:46:54.008Z,28.90
2022-11-19T03:50:26.574Z,28.00
2022-11-19T03:53:54.881Z,27.00
2022-11-19T03:57:24.881Z,24.60
2022-11-19T04:00:51.357Z,23.10
2022-11-19T04:04:35.808Z,23.40
2022-11-19T04:08:02.703Z,22.10
2022-11-19T04:11:29.100Z,19.90
2022-11-19T04:14:56.083Z,18.90
2022-11-19T04:18:22.728Z,19.80
2022-11-19T04:21:49.555Z,21.50
2022-11-19T04:25:17.087Z,22.00
2022-11-19T04:28:43.643Z,22.90
2022-11-19T04:32:10.542Z,25.20
2022-11-19T04:35:37.342Z,24.60
2022-11-19T04:39:03.801Z,24.60
2022-11-19T04:42:30.445Z,25.80
2022-11-19T04:45:57.559Z,27.20
2022-11-19T04:49:24.378Z,27.20
2022-11-19T04:52:50.971Z,25.80
2022-11-19T04:56:17.972Z,25.90
2022-11-19T04:59:44.340Z,25.70
2022-11-19T05:03:11.372Z,25.00
2022-11-19T05:06:38.466Z,25.00
2022-11-19T05:10:05.768Z,25.00
2022-11-19T05:13:32.934Z,25.30
2022-11-19T05:16:59.887Z,23.50
2022-11-19T05:20:26.539Z,23.30
2022-11-19T05:23:53.473Z,23.10
2022-11-19T05:27:20.297Z,22.50
2022-11-19T05:30:46.885Z,22.20
2022-11-19T05:34:13.862Z,21.90
2022-11-19T05:37:41.001Z,20.40
2022-11-19T05:41:07.739Z,20.10
2022-11-19T05:44:34.431Z,19.00
2022-11-19T05:48:01.361Z,20.70
2022-11-19T05:51:28.167Z,19.90
2022-11-19T05:54:54.839Z,21.30
2022-11-19T05:58:21.532Z,20.40
2022-11-19T06:01:48.322Z,19.10
2022-11-19T06:05:15.400Z,19.80
2022-11-19T06:08:41.848Z,20.70
2022-11-19T06:12:08.968Z,19.30
2022-11-19T06:15:35.694Z,18.60
2022-11-19T06:19:02.007Z,21.50
2022-11-19T06:22:28.824Z,22.10
2022-11-19T06:25:57.221Z,22.00
2022-11-19T06:29:24.373Z,20.30
2022-11-19T06:32:50.883Z,21.40
2022-11-19T06:36:17.884Z,20.20
2022-11-19T06:39:44.355Z,21.70
2022-11-19T06:43:11.056Z,21.70
2022-11-19T06:46:38.694Z,24.10
2022-11-19T06:50:06.334Z,23.90
2022-11-19T06:53:33.233Z,23.80
2022-11-19T06:57:00.860Z,28.40
2022-11-19T07:00:28.023Z,25.30
2022-11-19T07:03:54.925Z,23.40
2022-11-19T07:07:24.524Z,19.70
2022-11-19T07:10:51.700Z,20.20
2022-11-19T07:14:18.558Z,20.80
2022-11-19T07:17:44.927Z,24.80
2022-11-19T07:21:11.747Z,25.50
2022-11-19T07:24:38.533Z,22.50
2022-11-19T07:28:05.436Z,21.20
2022-11-19T07:31:35.228Z,19.80
2022-11-19T07:35:02.210Z,20.40
2022-11-19T07:38:34.125Z,20.90
2022-11-19T07:42:21.824Z,20.80
2022-11-19T07:45:52.047Z,19.60
2022-11-19T07:49:19.148Z,21.30
2022-11-19T07:52:47.743Z,19.70
2022-11-19T07:56:14.480Z,22.00
2022-11-19T07:59:41.483Z,21.30
2022-11-19T08:03:08.744Z,20.30
2022-11-19T08:06:37.535Z,19.10
2022-11-19T08:10:07.160Z,21.10
2022-11-19T08:13:34.358Z,20.10
2022-11-19T08:17:18.427Z,22.80
2022-11-19T08:20:51.840Z,22.80
2022-11-19T08:24:21.258Z,24.10
2022-11-19T08:27:47.923Z,23.50
2022-11-19T08:31:22.760Z,34.60
2022-11-19T08:34:49.528Z,29.10
2022-11-19T08:38:16.275Z,30.90
2022-11-19T08:42:00.414Z,21.50
2022-11-19T08:45:27.239Z,27.80
2022-11-19T08:48:54.104Z,39.90
2022-11-19T08:52:21.059Z,25.00
2022-11-19T08:55:56.452Z,23.90
2022-11-19T08:59:23.553Z,30.00
2022-11-19T09:02:50.196Z,26.80
2022-11-19T09:06:17.867Z,29.30
2022-11-19T09:09:44.503Z,23.80
2022-11-19T09:13:11.530Z,29.90
2022-11-19T09:16:38.215Z,32.50
2022-11-19T09:20:05.430Z,25.50
2022-11-19T09:23:32.520Z,24.70
2022-11-19T09:27:02.254Z,33.20
2022-11-19T09:30:31.144Z,22.60
2022-11-19T09:33:57.886Z,27.50
2022-11-19T09:37:24.426Z,30.70
2022-11-19T09:40:55.010Z,22.90
2022-11-19T09:44:45.325Z,22.10
2022-11-19T09:48:33.571Z,32.10
2022-11-19T09:52:07.223Z,33.80
2022-11-19T09:59:09.040Z,36.40
2022-11-19T10:02:36.391Z,29.70
2022-11-19T10:06:24.177Z,26.50
2022-11-19T10:10:04.433Z,19.40
2022-11-19T10:13:47.078Z,27.80
2022-11-19T10:17:28.025Z,24.10
2022-11-19T10:21:01.338Z,22.00
2022-11-19T10:24:43.627Z,24.40
2022-11-19T10:28:17.548Z,18.50
2022-11-19T10:31:47.683Z,18.90
2022-11-19T10:35:21.644Z,18.10
2022-11-19T10:38:55.310Z,21.70
2022-11-19T10:42:26.944Z,18.70
2022-11-19T10:45:55.200Z,18.80
2022-11-19T10:49:22.080Z,21.20
2022-11-19T10:52:53.319Z,18.60
2022-11-19T10:56:23.980Z,17.40
2022-11-19T10:59:52.075Z,20.40
2022-11-19T11:03:26.258Z,16.30
2022-11-19T11:06:58.617Z,18.20
2022-11-19T11:10:42.968Z,17.20
2022-11-19T11:14:32.627Z,15.90
2022-11-19T11:18:07.684Z,17.40
2022-11-19T11:21:38.506Z,16.80
2022-11-19T11:25:14.918Z,17.80
2022-11-19T11:28:58.437Z,17.80
2022-11-19T11:32:32.854Z,17.30
2022-11-19T11:36:02.894Z,16.00
2022-11-19T11:39:34.238Z,22.50
2022-11-19T11:43:01.465Z,22.00
2022-11-19T11:46:35.313Z,25.40
2022-11-19T11:50:10.101Z,30.00
2022-11-19T11:53:38.325Z,32.60
2022-11-19T11:57:19.680Z,39.10
2022-11-19T12:00:47.793Z,28.50
2022-11-19T12:04:16.326Z,33.40
2022-11-19T12:08:05.495Z,39.10
2022-11-19T12:11:57.784Z,34.10
2022-11-19T12:15:34.839Z,32.70
2022-11-19T12:19:17.338Z,31.30
2022-11-19T12:22:57.992Z,30.20
2022-11-19T12:26:35.324Z,21.00
2022-11-19T12:30:07.321Z,24.20
2022-11-19T12:33:54.172Z,20.70
2022-11-19T12:37:39.252Z,21.70
2022-11-19T12:41:20.550Z,23.10
2022-11-19T12:45:00.523Z,24.20
2022-11-19T12:48:44.248Z,22.20
2022-11-19T12:52:38.901Z,19.50
2022-11-19T12:59:51.224Z,22.20
2022-11-19T13:03:21.732Z,24.20
2022-11-19T13:06:56.423Z,18.90
2022-11-19T13:10:27.579Z,15.10
2022-11-19T13:14:00.170Z,16.10
2022-11-19T13:17:31.690Z,19.30
2022-11-19T13:21:03.224Z,21.40
2022-11-19T13:24:35.268Z,23.90
2022-11-19T13:28:13.881Z,17.50
2022-11-19T13:31:54.497Z,14.30
2022-11-19T13:35:29.254Z,14.20
2022-11-19T13:39:00.643Z,21.30
2022-11-19T13:42:58.956Z,15.80
2022-11-19T13:46:40.944Z,36.00
2022-11-19T13:50:16.342Z,24.10
2022-11-19T13:53:46.652Z,25.90
2022-11-19T13:57:30.473Z,19.40
2022-11-19T14:01:21.776Z,19.80
2022-11-19T14:08:48.336Z,24.30
2022-11-19T14:12:50.999Z,32.10
2022-11-19T14:16:51.857Z,31.10
2022-11-19T14:21:02.637Z,24.80
2022-11-19T14:25:17.218Z,45.90
2022-11-19T14:28:49.382Z,39.70
2022-11-19T14:32:30.955Z,46.40
2022-11-19T14:35:59.121Z,35.30
2022-11-19T14:39:31.030Z,32.30
2022-11-19T14:43:47.705Z,31.40
2022-11-19T14:47:38.965Z,25.80
2022-11-19T14:51:12.176Z,27.20
2022-11-19T14:54:48.008Z,25.70
2022-11-19T14:58:23.298Z,25.30
2022-11-19T15:02:03.416Z,22.80
2022-11-19T15:05:34.812Z,22.90
2022-11-19T15:09:02.460Z,24.20
2022-11-19T15:12:47.433Z,28.00
2022-11-19T15:16:17.251Z,38.50
2022-11-19T15:19:52.374Z,31.00
2022-11-19T15:23:26.152Z,39.50
2022-11-19T15:30:29.400Z,41.70
2022-11-19T15:34:38.542Z,31.80
2022-11-19T15:38:29.939Z,55.60
2022-11-19T15:42:04.232Z,46.30
2022-11-19T15:45:38.901Z,32.20
2022-11-19T15:49:14.410Z,32.90
2022-11-19T15:52:41.460Z,31.20
2022-11-19T15:56:16.218Z,40.70
2022-11-19T15:59:47.955Z,33.90
2022-11-19T16:03:16.043Z,36.90
2022-11-19T16:06:48.534Z,38.00
2022-11-19T16:10:18.441Z,32.50
2022-11-19T16:14:10.899Z,34.00
2022-11-19T16:17:44.632Z,31.30
2022-11-19T16:21:15.523Z,30.20
2022-11-19T16:25:00.233Z,28.40
2022-11-19T16:28:31.710Z,29.10
2022-11-19T16:32:02.939Z,28.20
2022-11-19T16:35:34.737Z,26.30
2022-11-19T16:39:01.883Z,29.70
2022-11-19T16:42:31.237Z,30.30
2022-11-19T16:46:02.625Z,31.80
2022-11-19T16:49:43.342Z,32.50
2022-11-19T16:53:11.036Z,29.90
2022-11-19T16:56:47.193Z,31.50
2022-11-19T17:00:21.696Z,32.20
2022-11-19T17:03:58.805Z,38.10
2022-11-19T17:07:36.583Z,33.20
2022-11-19T17:11:41.859Z,36.20
2022-11-19T17:15:41.188Z,35.20
2022-11-19T17:19:21.764Z,37.90
2022-11-19T17:22:53.961Z,39.30
2022-11-19T17:26:31.738Z,29.50
2022-11-19T17:30:09.609Z,29.90
2022-11-19T17:34:01.940Z,33.40
2022-11-19T17:37:31.547Z,35.50
2022-11-19T17:41:08.308Z,28.20
2022-11-19T17:44:42.014Z,30.40
2022-11-19T17:48:21.855Z,28.50
2022-11-19T17:51:56.075Z,27.10
2022-11-19T17:55:30.068Z,32.10
2022-11-19T17:58:59.972Z,30.40
2022-11-19T18:02:31.894Z,30.30
2022-11-19T18:06:03.596Z,29.30
2022-11-19T18:09:34.944Z,28.90
2022-11-19T18:13:03.980Z,29.40
2022-11-19T18:16:38.489Z,30.60
2022-11-19T18:20:20.409Z,33.40
2022-11-19T18:24:04.545Z,29.40
2022-11-19T18:27:38.917Z,30.90
2022-11-19T18:31:22.885Z,31.30
2022-11-19T18:34:50.518Z,28.10
2022-11-19T18:38:32.307Z,28.00
2022-11-19T18:42:00.824Z,25.80
2022-11-19T18:45:30.905Z,25.80
2022-11-19T18:49:06.454Z,26.90
2022-11-19T18:52:47.355Z,26.60
2022-11-19T18:56:21.531Z,26.10
2022-11-19T18:59:51.461Z,30.20
2022-11-19T19:03:23.474Z,30.00
2022-11-19T19:06:57.909Z,32.80
2022-11-19T19:10:26.040Z,34.00
2022-11-19T19:13:56.225Z,32.90
2022-11-19T19:17:27.614Z,36.30
2022-11-19T19:20:56.591Z,34.40
2022-11-19T19:24:27.126Z,34.20
2022-11-19T19:27:57.217Z,38.30
2022-11-19T19:31:27.657Z,34.40
2022-11-19T19:34:57.196Z,31.20
2022-11-19T19:38:24.891Z,32.50
2022-11-19T19:41:54.997Z,30.00
2022-11-19T19:45:25.437Z,30.30
2022-11-19T19:48:55.912Z,28.90
2022-11-19T19:52:23.042Z,28.90
2022-11-19T19:55:54.764Z,28.50
2022-11-19T19:59:22.019Z,33.60
2022-11-19T20:02:54.361Z,32.70
2022-11-19T20:06:27.220Z,50.20
2022-11-19T20:09:55.162Z,35.70
2022-11-19T20:13:34.306Z,32.70
2022-11-19T20:17:06.264Z,29.50
2022-11-19T20:20:36.927Z,33.90
2022-11-19T20:24:13.101Z,35.90
2022-11-19T20:27:52.072Z,43.90
2022-11-19T20:31:25.223Z,42.30
2022-11-19T20:34:58.808Z,40.60
2022-11-19T20:38:44.452Z,39.70
2022-11-19T20:42:29.600Z,39.30
2022-11-19T20:46:16.916Z,42.20
2022-11-19T20:49:53.467Z,39.10
2022-11-19T20:53:25.746Z,34.40
2022-11-19T20:57:03.197Z,36.60
2022-11-19T21:01:03.340Z,31.70
2022-11-19T21:04:39.295Z,34.90
2022-11-19T21:11:39.721Z,35.80
2022-11-19T21:15:12.072Z,35.10
2022-11-19T21:18:45.015Z,32.90
2022-11-19T21:22:15.711Z,31.80
2022-11-19T21:25:43.747Z,32.60
2022-11-19T21:29:13.372Z,34.00
2022-11-19T21:32:45.858Z,29.90
2022-11-19T21:36:20.626Z,28.00
2022-11-19T21:39:48.024Z,28.20
2022-11-19T21:43:17.343Z,29.70
2022-11-19T21:46:44.814Z,27.90
2022-11-19T21:50:13.008Z,30.70
2022-11-19T21:53:42.503Z,33.00
2022-11-19T21:57:19.185Z,35.50
2022-11-19T22:00:49.980Z,33.70
2022-11-19T22:04:19.052Z,35.70
2022-11-19T22:07:50.367Z,32.20
2022-11-19T22:11:35.104Z,33.10
2022-11-19T22:15:12.123Z,32.20
2022-11-19T22:18:43.929Z,32.20
2022-11-19T22:22:17.528Z,30.90
2022-11-19T22:25:50.358Z,34.00
2022-11-19T22:29:22.022Z,34.40
2022-11-19T22:32:54.602Z,37.70
2022-11-19T22:36:26.611Z,35.50
2022-11-19T22:39:58.500Z,30.60
2022-11-19T22:43:42.561Z,33.00
2022-11-19T22:47:11.939Z,33.10
2022-11-19T22:50:44.356Z,31.80
2022-11-19T22:54:16.640Z,32.20
2022-11-19T22:57:46.147Z,55.30
2022-11-19T23:01:20.005Z,60.80
2022-11-19T23:04:47.033Z,48.10
2022-11-19T23:08:14.650Z,51.90
2022-11-19T23:11:59.135Z,40.30
2022-11-19T23:15:28.469Z,36.50
2022-11-19T23:18:55.794Z,35.30
2022-11-19T23:22:25.062Z,34.90
2022-11-19T23:25:56.946Z,36.30
2022-11-19T23:29:24.285Z,37.30
2022-11-19T23:32:56.093Z,40.40
2022-11-19T23:36:28.118Z,48.30
2022-11-19T23:39:56.181Z,35.40
2022-11-19T23:43:22.640Z,36.60
2022-11-19T23:46:49.804Z,38.70
2022-11-19T23:50:19.560Z,41.10
2022-11-19T23:53:46.618Z,36.50
2022-11-19T23:57:13.894Z,36.90
